Greenfield, California
Current Conditions -  °F | °C
As of 1:23 PM on Saturday 22 Nov 2014 (Local Time) from KSNS Reporting Station
Haze Haze  
Wind Chill: 57°   Ceiling: 700
Heat Index: 57°   Visibility: 1.2mi
Dew Point: 55°   Wind: 12mph
Humidity: 94%   Direction: 110°ESE
Pressure: 30.13"   Gusts: NA
Location:  36.32°N, 121.24°W
Report Text: KSNS 222123Z 11010KT 1 1/4SM BR OVC007 14/13 A3013 RMK AO2 RAE23 P0001
Loading
Personal Weather Stations






























Interactive Weather Map New forecast layout! Learn more

10-Day Weather Forecast

Advertisements
Track Severe Weather on mobile